Time;durP1;ratioP1;P1;durP2;ratioP2;P2;SDS_P1;SDS_P2;PMS_P1;PMS_P2;Temp;Humidity;BMP_temperature;BMP_pressure;BME280_temperature;BME280_humidity;BME280_pressure;Samples;Min_cycle;Max_cycle;Signal;HPM_P1;HPM_P2
2021/10/05 00:00:53;;;;;;;20.93;8.93;;;13.30;97.30;;;;;;5073577;28;20202;-83
2021/10/05 00:03:19;;;;;;;16.80;8.50;;;13.30;97.30;;;;;;5072758;28;20175;-84
2021/10/05 00:05:45;;;;;;;20.67;9.50;;;13.40;97.30;;;;;;5072852;28;20270;-84
2021/10/05 00:08:11;;;;;;;25.30;9.43;;;13.30;97.30;;;;;;5072199;28;20175;-84
2021/10/05 00:10:36;;;;;;;18.70;8.50;;;13.30;97.30;;;;;;5072981;28;20456;-84
2021/10/05 00:13:02;;;;;;;19.73;8.73;;;13.30;97.30;;;;;;5072386;28;20206;-84
2021/10/05 00:15:27;;;;;;;23.00;8.93;;;13.30;97.30;;;;;;5073564;28;20183;-84
2021/10/05 00:17:53;;;;;;;17.43;8.00;;;13.40;97.30;;;;;;5074399;28;20229;-84
2021/10/05 00:20:19;;;;;;;19.00;8.53;;;13.40;97.30;;;;;;5073175;28;20227;-84
2021/10/05 00:22:44;;;;;;;19.80;8.70;;;13.40;97.30;;;;;;5072552;28;20186;-84
2021/10/05 00:25:10;;;;;;;19.90;9.57;;;13.40;97.30;;;;;;5074524;28;20470;-84
2021/10/05 00:27:36;;;;;;;18.10;8.53;;;13.30;97.30;;;;;;5074485;28;20176;-84
2021/10/05 00:30:04;;;;;;;29.73;10.40;;;13.30;97.30;;;;;;5071892;28;20191;-84
2021/10/05 00:32:29;;;;;;;17.57;8.57;;;13.30;97.30;;;;;;5071583;28;20204;-83
2021/10/05 00:34:55;;;;;;;17.27;8.67;;;13.30;97.30;;;;;;5072396;28;20591;-84
2021/10/05 00:37:20;;;;;;;17.60;8.90;;;13.30;97.30;;;;;;5072474;28;20260;-84
2021/10/05 00:39:46;;;;;;;18.60;8.77;;;13.30;97.30;;;;;;5073149;28;20202;-83
2021/10/05 00:42:11;;;;;;;21.00;9.53;;;13.30;97.30;;;;;;5074249;28;20269;-84
2021/10/05 00:44:39;;;;;;;16.20;8.90;;;13.30;97.30;;;;;;5074068;28;20179;-84
2021/10/05 00:47:10;;;;;;;18.87;9.57;;;13.30;97.30;;;;;;5072935;28;20201;-81
2021/10/05 00:49:37;;;;;;;22.73;10.33;;;13.30;97.30;;;;;;5072657;28;20446;-84
2021/10/05 00:52:04;;;;;;;18.97;9.10;;;13.30;97.30;;;;;;5089212;28;20580;-84
2021/10/05 00:54:35;;;;;;;24.10;9.70;;;13.30;97.30;;;;;;5071956;28;20468;-83
2021/10/05 00:57:01;;;;;;;17.93;9.47;;;13.30;97.30;;;;;;5072784;28;20413;-83
2021/10/05 00:59:27;;;;;;;28.03;11.53;;;13.40;97.30;;;;;;5073261;28;20995;-84
2021/10/05 01:01:53;;;;;;;17.17;8.90;;;13.30;97.30;;;;;;5091346;28;20423;-84
2021/10/05 01:04:18;;;;;;;21.00;9.93;;;13.40;97.30;;;;;;5073128;28;20706;-84
2021/10/05 01:06:58;;;;;;;19.20;8.90;;;13.30;97.30;;;;;;5072760;28;20537;-84
2021/10/05 01:09:24;;;;;;;22.17;9.30;;;13.30;97.30;;;;;;5073398;28;20624;-84
2021/10/05 01:11:50;;;;;;;24.77;9.90;;;13.30;97.30;;;;;;5071965;28;20457;-85
2021/10/05 01:14:15;;;;;;;21.37;10.90;;;13.30;97.30;;;;;;5071255;28;20854;-84
2021/10/05 01:16:41;;;;;;;21.47;9.67;;;13.30;97.30;;;;;;5087485;28;20504;-84
2021/10/05 01:19:06;;;;;;;21.37;10.53;;;13.30;97.30;;;;;;5071840;28;20175;-84
2021/10/05 01:21:32;;;;;;;22.10;10.40;;;13.30;97.30;;;;;;5071330;28;20230;-84
2021/10/05 01:24:13;;;;;;;21.60;9.70;;;13.30;97.30;;;;;;5073165;28;20262;-83
2021/10/05 01:26:39;;;;;;;26.07;10.10;;;13.30;97.30;;;;;;5072210;28;20263;-84
2021/10/05 01:29:06;;;;;;;26.17;12.00;;;13.30;97.30;;;;;;5071446;28;20433;-84
2021/10/05 01:31:36;;;;;;;22.23;10.53;;;13.30;97.30;;;;;;5071112;28;20670;-84
2021/10/05 01:34:01;;;;;;;24.97;10.37;;;13.20;97.30;;;;;;5071008;28;20661;-84
2021/10/05 01:36:27;;;;;;;21.30;9.63;;;13.20;97.30;;;;;;5071095;28;20418;-84
2021/10/05 01:38:53;;;;;;;26.60;10.27;;;13.20;97.30;;;;;;5070325;28;20171;-84
2021/10/05 01:41:18;;;;;;;21.93;10.93;;;13.20;97.30;;;;;;5070200;28;20245;-84
2021/10/05 01:43:44;;;;;;;26.80;11.87;;;13.20;97.30;;;;;;5070607;28;20222;-85
2021/10/05 01:46:13;;;;;;;24.90;11.10;;;13.10;97.30;;;;;;5070998;28;20194;-82
2021/10/05 01:48:40;;;;;;;24.80;10.67;;;13.20;97.30;;;;;;5071852;28;20187;-85
2021/10/05 01:51:06;;;;;;;22.70;11.30;;;13.20;97.30;;;;;;5072706;28;20445;-84
2021/10/05 01:53:31;;;;;;;24.17;11.00;;;13.10;97.30;;;;;;5071973;28;20421;-84
2021/10/05 01:55:57;;;;;;;23.73;10.87;;;13.10;97.30;;;;;;5071288;28;20265;-84
2021/10/05 01:58:22;;;;;;;24.40;11.40;;;13.10;97.30;;;;;;5072246;28;20312;-85
2021/10/05 02:00:48;;;;;;;25.70;10.83;;;13.10;97.30;;;;;;5070629;28;20230;-84
2021/10/05 02:03:14;;;;;;;22.93;9.87;;;13.00;97.30;;;;;;5071032;28;20179;-84
2021/10/05 02:05:41;;;;;;;22.83;10.07;;;13.10;97.30;;;;;;5072547;28;20644;-83
2021/10/05 02:08:07;;;;;;;25.70;11.97;;;13.10;97.30;;;;;;5069764;28;20474;-85
2021/10/05 02:10:34;;;;;;;23.90;10.73;;;13.10;97.30;;;;;;5069305;28;20556;-82
2021/10/05 02:12:59;;;;;;;25.20;10.73;;;13.00;97.30;;;;;;5072277;28;20464;-82
2021/10/05 02:15:25;;;;;;;28.63;11.60;;;13.00;97.30;;;;;;5071028;28;20418;-85
2021/10/05 02:17:50;;;;;;;16.17;8.87;;;13.00;97.30;;;;;;5071576;28;20186;-85
2021/10/05 02:20:16;;;;;;;21.27;9.50;;;13.00;97.30;;;;;;5069404;28;20312;-85
2021/10/05 02:22:42;;;;;;;23.50;9.57;;;13.10;97.30;;;;;;5070037;28;20178;-83
2021/10/05 02:25:08;;;;;;;20.87;9.90;;;13.00;97.30;;;;;;5069691;28;20429;-82
2021/10/05 02:27:34;;;;;;;22.17;8.80;;;13.00;97.30;;;;;;5069131;28;20202;-81
2021/10/05 02:30:00;;;;;;;23.83;10.47;;;13.00;97.30;;;;;;5068315;28;20527;-81
2021/10/05 02:32:26;;;;;;;27.70;10.80;;;13.00;97.30;;;;;;5070705;28;20453;-82
2021/10/05 02:34:52;;;;;;;23.23;10.20;;;13.00;97.30;;;;;;5070916;28;20401;-83
2021/10/05 02:37:18;;;;;;;21.03;10.20;;;13.00;97.30;;;;;;5069997;28;20175;-82
2021/10/05 02:39:43;;;;;;;22.90;10.67;;;13.10;97.30;;;;;;5070184;28;20230;-81
2021/10/05 02:42:09;;;;;;;21.50;9.17;;;13.10;97.30;;;;;;5070345;28;20496;-83
2021/10/05 02:44:35;;;;;;;16.07;8.87;;;13.00;97.30;;;;;;5069544;28;20707;-83
2021/10/05 02:47:01;;;;;;;17.83;8.10;;;13.00;97.30;;;;;;5069605;28;20467;-82
2021/10/05 02:49:26;;;;;;;16.70;8.20;;;13.00;97.30;;;;;;5069383;28;20241;-83
2021/10/05 02:51:52;;;;;;;15.57;8.40;;;13.00;97.30;;;;;;5068709;28;20203;-83
2021/10/05 02:54:17;;;;;;;20.40;7.50;;;13.00;97.30;;;;;;5069130;28;20229;-83
2021/10/05 02:56:43;;;;;;;14.00;7.30;;;13.00;97.30;;;;;;5068747;28;20174;-83
2021/10/05 02:59:09;;;;;;;15.20;7.43;;;13.00;97.30;;;;;;5069598;28;20262;-82
2021/10/05 03:01:35;;;;;;;11.80;6.37;;;13.00;97.30;;;;;;5070269;28;20695;-83
2021/10/05 03:04:00;;;;;;;15.43;6.63;;;13.00;97.30;;;;;;5071286;28;20187;-84
2021/10/05 03:06:25;;;;;;;11.73;6.40;;;13.00;97.30;;;;;;5069559;28;20179;-83
2021/10/05 03:08:54;;;;;;;13.90;7.57;;;13.00;97.30;;;;;;5069568;28;20211;-84
2021/10/05 03:11:20;;;;;;;11.17;6.23;;;13.00;97.30;;;;;;5070493;28;20194;-83
2021/10/05 03:13:45;;;;;;;14.50;7.33;;;13.00;97.30;;;;;;5069324;28;20413;-81
2021/10/05 03:16:11;;;;;;;11.60;6.20;;;13.00;97.30;;;;;;5068780;28;20172;-84
2021/10/05 03:18:41;;;;;;;15.10;7.80;;;13.00;97.30;;;;;;5069408;28;20167;-83
2021/10/05 03:21:06;;;;;;;13.60;6.30;;;13.00;97.30;;;;;;5074252;28;20219;-83
2021/10/05 03:23:32;;;;;;;12.90;6.47;;;13.00;97.30;;;;;;5075086;28;20424;-83
2021/10/05 03:25:57;;;;;;;17.43;7.57;;;13.00;97.30;;;;;;5075266;28;20211;-84
2021/10/05 03:28:23;;;;;;;12.13;6.57;;;12.90;97.30;;;;;;5076671;28;20217;-83
2021/10/05 03:30:49;;;;;;;13.03;5.90;;;12.90;97.30;;;;;;5074082;28;20616;-83
2021/10/05 03:33:14;;;;;;;11.93;6.80;;;12.90;97.30;;;;;;5073593;28;20465;-83
2021/10/05 03:35:40;;;;;;;11.03;5.70;;;12.90;97.30;;;;;;5070027;28;20693;-83
2021/10/05 03:38:05;;;;;;;13.93;7.30;;;12.90;97.30;;;;;;5068661;28;20275;-83
2021/10/05 03:40:31;;;;;;;14.03;6.63;;;12.90;97.30;;;;;;5069979;28;20195;-83
2021/10/05 03:42:56;;;;;;;15.30;6.03;;;12.90;97.30;;;;;;5072772;28;20178;-81
2021/10/05 03:45:22;;;;;;;14.37;6.50;;;12.80;97.30;;;;;;5073736;28;20186;-82
2021/10/05 03:47:47;;;;;;;14.60;6.10;;;12.80;97.30;;;;;;5073193;28;20619;-83
2021/10/05 03:50:14;;;;;;;15.53;6.17;;;12.80;97.30;;;;;;5073557;28;20195;-84
2021/10/05 03:52:40;;;;;;;13.67;5.87;;;12.80;97.30;;;;;;5072377;28;20260;-83
2021/10/05 03:55:08;;;;;;;8.87;5.10;;;12.80;97.30;;;;;;5072016;28;20401;-83
2021/10/05 03:57:33;;;;;;;12.67;6.53;;;12.70;97.30;;;;;;5072243;28;20410;-82
2021/10/05 03:59:59;;;;;;;12.50;6.10;;;12.70;97.30;;;;;;5072343;28;20517;-83
2021/10/05 04:02:24;;;;;;;10.50;5.90;;;12.70;97.30;;;;;;5071445;28;20224;-81
2021/10/05 04:04:50;;;;;;;11.00;5.63;;;12.70;97.30;;;;;;5071355;28;20213;-83
2021/10/05 04:07:15;;;;;;;12.17;5.43;;;12.70;97.30;;;;;;5068388;28;20178;-83
2021/10/05 04:09:43;;;;;;;10.93;5.67;;;12.70;97.30;;;;;;5072534;28;20198;-82
2021/10/05 04:12:09;;;;;;;14.43;5.73;;;12.70;97.30;;;;;;5072641;28;20209;-83
2021/10/05 04:14:34;;;;;;;9.67;5.63;;;12.60;97.30;;;;;;5073272;28;20406;-82
2021/10/05 04:17:00;;;;;;;8.47;4.53;;;12.60;97.30;;;;;;5072527;28;20179;-84
2021/10/05 04:19:25;;;;;;;9.27;4.63;;;12.60;97.30;;;;;;5071944;28;20244;-83
2021/10/05 04:21:51;;;;;;;7.57;4.20;;;12.60;97.30;;;;;;5063438;28;20194;-83
2021/10/05 04:24:16;;;;;;;12.30;6.23;;;12.60;97.30;;;;;;5060255;28;20191;-84
2021/10/05 04:26:42;;;;;;;10.70;5.20;;;12.60;97.30;;;;;;5060102;28;20172;-83
2021/10/05 04:29:07;;;;;;;8.97;4.40;;;12.60;97.30;;;;;;5062271;28;20172;-83
2021/10/05 04:31:33;;;;;;;10.20;4.97;;;12.50;97.30;;;;;;5060530;28;20717;-83
2021/10/05 04:33:58;;;;;;;9.40;5.50;;;12.50;97.30;;;;;;5063453;28;20174;-83
2021/10/05 04:36:24;;;;;;;12.53;6.00;;;12.50;97.30;;;;;;5062030;28;20191;-83
2021/10/05 04:38:49;;;;;;;7.90;4.43;;;12.50;97.30;;;;;;5060376;28;20172;-83
2021/10/05 04:41:15;;;;;;;10.30;5.40;;;12.50;97.30;;;;;;5054554;28;20230;-82
2021/10/05 04:43:41;;;;;;;8.47;4.70;;;12.50;97.30;;;;;;5052476;28;20226;-84
2021/10/05 04:46:06;;;;;;;11.77;5.17;;;12.40;97.30;;;;;;5063566;28;20643;-84
2021/10/05 04:48:32;;;;;;;10.00;3.97;;;12.40;97.30;;;;;;5058781;28;20227;-84
2021/10/05 04:50:57;;;;;;;8.80;5.20;;;12.40;97.30;;;;;;5059566;28;20199;-85
2021/10/05 04:53:23;;;;;;;8.73;4.07;;;12.40;97.30;;;;;;5058173;28;20982;-84
2021/10/05 04:55:48;;;;;;;7.13;3.80;;;12.30;97.30;;;;;;5060719;28;20181;-83
2021/10/05 04:58:14;;;;;;;10.80;4.70;;;12.30;97.30;;;;;;5063722;28;20522;-84
2021/10/05 05:00:40;;;;;;;15.90;4.53;;;12.30;97.30;;;;;;5065550;28;20277;-84
2021/10/05 05:03:05;;;;;;;10.37;4.87;;;12.30;97.30;;;;;;5062018;28;20164;-84
2021/10/05 05:05:31;;;;;;;15.27;6.10;;;12.20;97.30;;;;;;5057994;28;20175;-84
2021/10/05 05:08:00;;;;;;;8.63;4.63;;;12.20;97.30;;;;;;5062657;28;20172;-83
2021/10/05 05:10:27;;;;;;;10.43;4.77;;;12.20;97.30;;;;;;5068633;28;20985;-85
2021/10/05 05:12:53;;;;;;;9.90;4.80;;;12.20;97.30;;;;;;5070838;28;20456;-85
2021/10/05 05:15:19;;;;;;;14.33;5.30;;;12.20;97.30;;;;;;5071073;28;20494;-84
2021/10/05 05:17:44;;;;;;;9.63;6.03;;;12.20;97.30;;;;;;5071234;28;20179;-84
2021/10/05 05:20:10;;;;;;;8.57;4.70;;;12.20;97.30;;;;;;5070319;28;20461;-84
2021/10/05 05:22:37;;;;;;;13.93;5.13;;;12.20;97.30;;;;;;5071861;28;20218;-84
2021/10/05 05:25:04;;;;;;;8.90;4.80;;;12.20;97.30;;;;;;5072283;28;20768;-84
2021/10/05 05:27:30;;;;;;;11.47;5.37;;;12.20;97.30;;;;;;5071061;28;20409;-83
2021/10/05 05:29:55;;;;;;;15.50;5.17;;;12.30;97.30;;;;;;5070248;28;20467;-84
2021/10/05 05:32:21;;;;;;;13.03;5.20;;;12.30;97.30;;;;;;5071017;28;20203;-84
2021/10/05 05:34:47;;;;;;;9.40;4.77;;;12.30;97.30;;;;;;5070983;28;20225;-84
2021/10/05 05:37:12;;;;;;;12.23;5.80;;;12.30;97.30;;;;;;5070428;28;20220;-84
2021/10/05 05:39:40;;;;;;;14.50;6.07;;;12.30;97.30;;;;;;5072049;28;20187;-84
2021/10/05 05:42:10;;;;;;;6.90;4.37;;;12.30;97.30;;;;;;5070646;28;20228;-84
2021/10/05 05:44:37;;;;;;;10.67;4.67;;;12.30;97.30;;;;;;5070889;28;20941;-84
2021/10/05 05:47:03;;;;;;;12.17;4.30;;;12.30;97.30;;;;;;5071351;28;20493;-84
2021/10/05 05:49:29;;;;;;;11.40;4.63;;;12.30;97.30;;;;;;5059084;28;20469;-84
2021/10/05 05:51:54;;;;;;;8.10;4.60;;;12.30;97.30;;;;;;5051949;28;20493;-84
2021/10/05 05:54:20;;;;;;;10.47;4.60;;;12.30;97.30;;;;;;5051033;28;20545;-84
2021/10/05 05:56:46;;;;;;;8.43;4.70;;;12.30;97.30;;;;;;5050877;28;20184;-84
2021/10/05 05:59:11;;;;;;;10.47;4.67;;;12.30;97.30;;;;;;5050893;28;20232;-85
2021/10/05 06:01:37;;;;;;;13.87;5.03;;;12.30;97.30;;;;;;5050133;28;20191;-83
2021/10/05 06:04:03;;;;;;;11.90;5.17;;;12.30;97.30;;;;;;5051237;28;20203;-84
2021/10/05 06:06:32;;;;;;;11.83;5.40;;;12.30;97.30;;;;;;5049848;28;20175;-84
2021/10/05 06:08:59;;;;;;;9.83;4.70;;;12.40;97.30;;;;;;5052058;28;20183;-85
2021/10/05 06:11:28;;;;;;;10.20;5.00;;;12.40;97.30;;;;;;5057992;28;20426;-84
2021/10/05 06:13:54;;;;;;;8.60;4.63;;;12.40;97.30;;;;;;5071140;28;20791;-85
2021/10/05 06:16:19;;;;;;;13.60;6.30;;;12.40;97.30;;;;;;5072374;28;20413;-84
2021/10/05 06:18:45;;;;;;;10.37;5.50;;;12.40;97.30;;;;;;5070961;28;20178;-84
2021/10/05 06:21:11;;;;;;;17.13;7.10;;;12.40;97.30;;;;;;5070666;28;20222;-82
2021/10/05 06:23:37;;;;;;;11.20;5.10;;;12.40;97.30;;;;;;5070259;28;20182;-84
2021/10/05 06:26:03;;;;;;;11.77;5.60;;;12.40;97.30;;;;;;5069424;28;20413;-84
2021/10/05 06:28:28;;;;;;;12.03;5.50;;;12.40;97.30;;;;;;5069730;28;20187;-82
2021/10/05 06:30:54;;;;;;;16.27;6.07;;;12.50;97.30;;;;;;5071249;28;20488;-85
2021/10/05 06:33:19;;;;;;;14.13;5.90;;;12.40;97.30;;;;;;5070119;28;20207;-82
2021/10/05 06:35:45;;;;;;;12.93;5.90;;;12.50;97.30;;;;;;5070733;28;20179;-83
2021/10/05 06:38:11;;;;;;;12.50;5.50;;;12.50;97.30;;;;;;5071387;28;20175;-85
2021/10/05 06:40:38;;;;;;;16.63;6.40;;;12.50;97.30;;;;;;5069172;28;20206;-84
2021/10/05 06:43:04;;;;;;;13.30;7.00;;;12.50;97.30;;;;;;5057200;28;20240;-84
2021/10/05 06:45:30;;;;;;;11.50;6.60;;;12.50;97.30;;;;;;5057513;28;20426;-85
2021/10/05 06:47:55;;;;;;;14.73;6.30;;;12.50;97.30;;;;;;5054613;28;20180;-84
2021/10/05 06:50:25;;;;;;;14.17;6.47;;;12.50;97.30;;;;;;5069134;28;20862;-83
2021/10/05 06:52:51;;;;;;;11.10;6.20;;;12.50;97.30;;;;;;5060434;28;20199;-84
2021/10/05 06:55:17;;;;;;;11.70;5.90;;;12.50;97.30;;;;;;5060854;28;20455;-84
2021/10/05 06:57:43;;;;;;;16.63;6.60;;;12.50;97.30;;;;;;5058295;28;20442;-84
2021/10/05 07:00:15;;;;;;;12.87;6.93;;;12.60;97.30;;;;;;5058527;28;20199;-85
2021/10/05 07:02:41;;;;;;;18.07;7.70;;;12.60;97.30;;;;;;5060000;28;20418;-84
2021/10/05 07:05:08;;;;;;;23.00;8.17;;;12.60;97.30;;;;;;5062678;28;20410;-84
2021/10/05 07:07:40;;;;;;;20.83;7.70;;;12.60;97.30;;;;;;5063650;28;20420;-84
2021/10/05 07:10:06;;;;;;;16.83;7.20;;;12.60;97.30;;;;;;5068625;28;20963;-84
2021/10/05 07:12:32;;;;;;;17.13;6.93;;;12.60;97.30;;;;;;5069539;28;20457;-84
2021/10/05 07:14:57;;;;;;;20.30;7.73;;;12.60;97.30;;;;;;5057070;28;20973;-84
2021/10/05 07:17:23;;;;;;;15.43;6.87;;;12.60;97.30;;;;;;5051318;28;20219;-85
2021/10/05 07:19:48;;;;;;;14.90;7.20;;;12.70;97.30;;;;;;5054732;28;20207;-84
2021/10/05 07:22:14;;;;;;;12.67;7.07;;;12.70;97.30;;;;;;5057754;28;20171;-84
2021/10/05 07:24:39;;;;;;;15.07;6.30;;;12.70;97.30;;;;;;5074809;28;20177;-85
2021/10/05 07:27:05;;;;;;;14.20;6.47;;;12.70;97.30;;;;;;5074968;28;20487;-84
2021/10/05 07:29:30;;;;;;;21.63;7.30;;;12.60;97.30;;;;;;5073795;28;20237;-84
2021/10/05 07:31:56;;;;;;;16.43;7.37;;;12.60;97.30;;;;;;5073644;28;20646;-84
2021/10/05 07:34:21;;;;;;;11.80;6.70;;;12.60;97.30;;;;;;5073810;28;20186;-84
2021/10/05 07:36:47;;;;;;;20.77;8.87;;;12.60;97.30;;;;;;5073571;28;20179;-85
2021/10/05 07:39:13;;;;;;;14.80;6.73;;;12.60;97.30;;;;;;5072861;28;20237;-84
2021/10/05 07:41:38;;;;;;;12.10;7.23;;;12.60;97.30;;;;;;5072866;28;20422;-85
2021/10/05 07:44:04;;;;;;;13.90;6.97;;;12.60;97.30;;;;;;5072673;28;20274;-83
2021/10/05 07:46:30;;;;;;;12.33;7.23;;;12.60;97.30;;;;;;5072662;28;20178;-83
2021/10/05 07:48:55;;;;;;;16.60;7.60;;;12.70;97.30;;;;;;5073776;28;20561;-83
2021/10/05 07:51:21;;;;;;;12.67;7.17;;;12.70;97.30;;;;;;5073909;28;20198;-82
2021/10/05 07:53:46;;;;;;;17.40;7.97;;;12.70;97.30;;;;;;5073342;28;20174;-84
2021/10/05 07:56:12;;;;;;;12.40;6.67;;;12.70;97.30;;;;;;5073472;28;20167;-83
2021/10/05 07:58:37;;;;;;;13.67;6.93;;;12.70;97.30;;;;;;5074493;28;20171;-83
2021/10/05 08:01:04;;;;;;;11.73;6.53;;;12.70;97.30;;;;;;5074631;28;20240;-84
2021/10/05 08:03:29;;;;;;;14.33;6.53;;;12.70;97.30;;;;;;5073378;28;20171;-83
2021/10/05 08:05:55;;;;;;;11.93;6.73;;;12.70;97.30;;;;;;5073854;28;20498;-83
2021/10/05 08:08:20;;;;;;;12.10;6.80;;;12.70;97.30;;;;;;5074758;28;20176;-83
2021/10/05 08:10:46;;;;;;;10.30;6.27;;;12.70;97.30;;;;;;5076047;28;20242;-82
2021/10/05 08:13:11;;;;;;;11.30;6.60;;;12.70;97.30;;;;;;5075069;28;20633;-82
2021/10/05 08:15:37;;;;;;;10.50;6.20;;;12.70;97.30;;;;;;5075527;28;20187;-82
2021/10/05 08:18:03;;;;;;;12.07;6.23;;;12.60;97.30;;;;;;5076147;28;20201;-83
2021/10/05 08:20:29;;;;;;;12.87;6.63;;;12.70;97.30;;;;;;5074569;28;20222;-83
2021/10/05 08:22:55;;;;;;;9.40;5.60;;;12.70;97.30;;;;;;5075962;28;20544;-83
2021/10/05 08:25:21;;;;;;;9.17;5.30;;;12.70;97.30;;;;;;5076257;28;20190;-82
2021/10/05 08:27:47;;;;;;;13.10;6.63;;;12.70;97.30;;;;;;5073170;28;20414;-83
2021/10/05 08:30:13;;;;;;;11.07;6.90;;;12.70;97.30;;;;;;5053119;28;20815;-81
2021/10/05 08:32:39;;;;;;;11.00;6.50;;;12.70;97.30;;;;;;5053687;28;20267;-83
2021/10/05 08:35:05;;;;;;;11.83;6.33;;;12.70;97.30;;;;;;5055247;28;20407;-81
2021/10/05 08:37:31;;;;;;;12.20;5.90;;;12.70;97.30;;;;;;5055070;28;20444;-81
2021/10/05 08:39:57;;;;;;;11.67;6.40;;;12.70;97.30;;;;;;5055577;28;20234;-83
2021/10/05 08:42:23;;;;;;;13.17;6.60;;;12.70;97.30;;;;;;5058193;28;20259;-83
2021/10/05 08:44:49;;;;;;;10.63;5.93;;;12.70;97.30;;;;;;5055503;28;20425;-84
2021/10/05 08:47:16;;;;;;;13.43;6.63;;;12.70;97.30;;;;;;5054795;28;20733;-82
2021/10/05 08:49:43;;;;;;;11.17;6.17;;;12.70;97.30;;;;;;5056295;28;20437;-83
2021/10/05 08:52:09;;;;;;;9.87;5.90;;;12.70;97.30;;;;;;5055052;28;20461;-83
2021/10/05 08:54:38;;;;;;;12.13;5.80;;;12.60;97.30;;;;;;5053703;28;20422;-82
2021/10/05 08:57:04;;;;;;;10.43;6.10;;;12.70;97.30;;;;;;5054293;28;20425;-80
2021/10/05 08:59:29;;;;;;;10.10;6.07;;;12.70;97.30;;;;;;5054414;28;20466;-83
2021/10/05 09:01:57;;;;;;;8.70;5.17;;;12.70;97.30;;;;;;5054868;28;20800;-84
2021/10/05 09:04:22;;;;;;;11.17;5.87;;;12.70;97.30;;;;;;5056942;28;20522;-82
2021/10/05 09:06:51;;;;;;;9.70;5.53;;;12.70;97.30;;;;;;5054805;28;20424;-83
2021/10/05 09:09:18;;;;;;;10.23;6.10;;;12.70;97.30;;;;;;5066352;28;20210;-84
2021/10/05 09:11:51;;;;;;;8.87;5.07;;;12.80;97.30;;;;;;5056053;28;20469;-83
2021/10/05 09:14:17;;;;;;;12.80;5.07;;;12.80;97.30;;;;;;5055264;28;20394;-84
2021/10/05 09:16:43;;;;;;;12.00;5.53;;;12.80;97.30;;;;;;5054123;28;20415;-83
2021/10/05 09:19:15;;;;;;;12.97;5.47;;;12.80;97.30;;;;;;5053205;28;20187;-84
2021/10/05 09:21:49;;;;;;;9.50;5.20;;;12.90;97.30;;;;;;5055199;28;20781;-83
2021/10/05 09:24:32;;;;;;;10.07;5.97;;;12.90;97.30;;;;;;5053739;28;20421;-83
2021/10/05 09:27:02;;;;;;;11.20;6.07;;;12.90;97.30;;;;;;5054045;28;20466;-83
2021/10/05 09:29:31;;;;;;;13.23;7.17;;;12.90;97.30;;;;;;5053891;28;20974;-84
2021/10/05 09:32:00;;;;;;;9.20;5.40;;;12.90;97.30;;;;;;5054620;28;20458;-84
2021/10/05 09:34:49;;;;;;;10.17;4.83;;;13.00;97.30;;;;;;5055006;28;20482;-84
2021/10/05 09:37:17;;;;;;;8.60;5.10;;;13.00;97.30;;;;;;5053580;28;21124;-82
2021/10/05 09:39:46;;;;;;;7.80;4.80;;;13.00;97.30;;;;;;5053856;28;20430;-84
2021/10/05 09:42:28;;;;;;;10.27;5.40;;;13.00;97.30;;;;;;5065198;28;21024;-83
2021/10/05 09:44:56;;;;;;;7.63;5.30;;;13.00;97.30;;;;;;5072923;28;21187;-83
2021/10/05 09:47:44;;;;;;;9.40;5.10;;;13.00;97.30;;;;;;5072721;28;20478;-83
2021/10/05 09:50:33;;;;;;;8.77;5.03;;;13.00;97.30;;;;;;5053249;28;20801;-83
2021/10/05 09:53:01;;;;;;;8.50;5.07;;;13.00;97.30;;;;;;5073044;28;20445;-83
2021/10/05 09:55:31;;;;;;;8.83;6.10;;;13.00;97.30;;;;;;5065597;28;20422;-83
2021/10/05 09:57:57;;;;;;;9.30;5.60;;;13.00;97.30;;;;;;5062874;28;21112;-84
2021/10/05 10:00:26;;;;;;;6.43;4.00;;;13.00;97.30;;;;;;5059495;28;20433;-83
2021/10/05 10:02:52;;;;;;;9.33;5.13;;;13.00;97.30;;;;;;5073986;28;20930;-83
2021/10/05 10:05:23;;;;;;;10.37;5.27;;;13.00;97.30;;;;;;5062545;28;20414;-83
2021/10/05 10:07:51;;;;;;;12.77;6.30;;;13.00;97.30;;;;;;5052703;28;20237;-83
2021/10/05 10:10:25;;;;;;;10.07;6.30;;;13.00;97.30;;;;;;5062834;28;20456;-81
2021/10/05 10:12:52;;;;;;;10.63;5.43;;;13.00;97.30;;;;;;5072526;28;20449;-83
2021/10/05 10:15:21;;;;;;;9.63;5.67;;;13.00;97.30;;;;;;5072088;28;20849;-83
2021/10/05 10:17:46;;;;;;;8.47;5.13;;;13.00;97.30;;;;;;5069491;28;20410;-83
2021/10/05 10:20:26;;;;;;;9.33;5.40;;;13.00;97.30;;;;;;5073376;28;20526;-82
2021/10/05 10:22:53;;;;;;;11.87;5.63;;;13.00;97.30;;;;;;5073351;28;20502;-83
2021/10/05 10:25:24;;;;;;;11.57;6.50;;;13.00;97.30;;;;;;5064225;28;20434;-84
2021/10/05 10:27:55;;;;;;;12.63;6.50;;;13.00;97.30;;;;;;5056956;28;20411;-85
2021/10/05 10:30:28;;;;;;;12.87;6.80;;;13.00;97.30;;;;;;5061142;28;20465;-83
2021/10/05 10:33:00;;;;;;;23.80;8.60;;;13.00;97.30;;;;;;5063452;28;20461;-83
2021/10/05 10:35:26;;;;;;;15.13;6.87;;;13.00;97.30;;;;;;5068463;28;20956;-84
2021/10/05 10:37:53;;;;;;;11.63;6.30;;;13.00;97.30;;;;;;5063529;28;20417;-84
2021/10/05 10:40:32;;;;;;;14.20;6.83;;;13.00;97.30;;;;;;5066594;28;20437;-83
2021/10/05 10:43:12;;;;;;;10.50;6.10;;;13.00;97.30;;;;;;5073067;28;20463;-85
2021/10/05 10:45:58;;;;;;;9.00;5.53;;;13.00;97.30;;;;;;5074336;28;20928;-83
2021/10/05 10:48:29;;;;;;;10.17;5.97;;;12.90;97.30;;;;;;5063654;28;20457;-83
2021/10/05 10:50:58;;;;;;;13.00;5.20;;;12.90;97.30;;;;;;5072458;28;20429;-84
2021/10/05 10:53:39;;;;;;;9.83;5.70;;;12.90;97.30;;;;;;5076144;28;20460;-83
2021/10/05 10:56:06;;;;;;;11.10;5.53;;;12.80;97.30;;;;;;5076441;28;20413;-83
2021/10/05 10:58:34;;;;;;;9.97;5.97;;;12.80;97.30;;;;;;5075501;28;20414;-83
2021/10/05 11:01:00;;;;;;;10.73;6.27;;;12.80;97.30;;;;;;5076166;28;20438;-84
2021/10/05 11:03:27;;;;;;;9.47;5.67;;;12.90;97.30;;;;;;5076249;28;20420;-84
2021/10/05 11:05:53;;;;;;;10.47;5.40;;;12.90;97.30;;;;;;5076075;28;20186;-82
2021/10/05 11:08:18;;;;;;;8.13;5.33;;;12.90;97.30;;;;;;5077358;28;20491;-84
2021/10/05 11:10:44;;;;;;;9.80;4.97;;;12.90;97.30;;;;;;5078081;28;20202;-83
2021/10/05 11:13:09;;;;;;;9.70;5.10;;;12.90;97.30;;;;;;5076613;28;20657;-84
2021/10/05 11:15:41;;;;;;;6.03;3.77;;;12.90;97.30;;;;;;5076077;28;20179;-84
2021/10/05 11:18:08;;;;;;;6.97;3.90;;;12.90;97.30;;;;;;5076079;28;20171;-84
2021/10/05 11:21:02;;;;;;;8.17;4.43;;;12.90;97.30;;;;;;5076540;28;20487;-83
2021/10/05 11:23:28;;;;;;;4.73;3.23;;;12.90;97.30;;;;;;5076834;28;20494;-83
2021/10/05 11:25:56;;;;;;;5.73;3.80;;;12.90;97.30;;;;;;5077662;28;20827;-83
2021/10/05 11:28:25;;;;;;;4.67;3.30;;;12.90;97.30;;;;;;5075642;28;20646;-85
2021/10/05 11:30:57;;;;;;;4.90;3.70;;;12.90;97.30;;;;;;5076317;28;20436;-84
2021/10/05 11:33:27;;;;;;;5.30;3.77;;;12.90;97.30;;;;;;5076861;28;20468;-83
2021/10/05 11:35:54;;;;;;;4.03;3.20;;;12.90;97.30;;;;;;5076960;28;20408;-83
2021/10/05 11:38:20;;;;;;;5.13;3.37;;;12.90;97.30;;;;;;5075873;28;21015;-83
2021/10/05 11:40:57;;;;;;;4.83;3.97;;;12.90;97.30;;;;;;5076308;28;20465;-84
2021/10/05 11:43:45;;;;;;;5.27;3.47;;;12.80;97.30;;;;;;5075968;28;20171;-83
2021/10/05 11:46:17;;;;;;;6.23;4.20;;;12.80;97.30;;;;;;5075286;28;20761;-83
2021/10/05 11:48:45;;;;;;;6.30;3.70;;;12.80;97.30;;;;;;5075670;28;20428;-83
2021/10/05 11:51:12;;;;;;;8.00;5.23;;;12.80;97.30;;;;;;5075786;28;20444;-83
2021/10/05 11:53:39;;;;;;;7.13;4.10;;;12.80;97.30;;;;;;5075509;28;20463;-83
2021/10/05 11:56:11;;;;;;;7.87;4.97;;;12.90;97.30;;;;;;5076463;28;20504;-82
2021/10/05 11:58:42;;;;;;;6.33;4.00;;;12.90;97.30;;;;;;5076487;28;20504;-82
2021/10/05 12:01:25;;;;;;;6.50;3.90;;;12.90;97.30;;;;;;5077876;28;20436;-82
2021/10/05 12:03:52;;;;;;;5.17;4.00;;;12.90;97.30;;;;;;5075656;28;20413;-82
2021/10/05 12:06:31;;;;;;;5.80;4.23;;;12.80;97.30;;;;;;5076760;28;20417;-82
2021/10/05 12:08:58;;;;;;;6.60;3.80;;;12.80;97.30;;;;;;5075670;28;20509;-82
2021/10/05 12:11:44;;;;;;;6.23;4.37;;;12.80;97.30;;;;;;5074979;28;20812;-82
2021/10/05 12:14:11;;;;;;;9.00;5.47;;;12.80;97.30;;;;;;5076670;28;20417;-82
2021/10/05 12:16:41;;;;;;;8.27;4.60;;;12.80;97.30;;;;;;5075093;28;20634;-83
2021/10/05 12:19:07;;;;;;;8.33;5.60;;;12.70;97.30;;;;;;5075110;28;20441;-82
2021/10/05 12:21:33;;;;;;;9.80;4.60;;;12.70;97.30;;;;;;5075874;28;20519;-82
2021/10/05 12:24:02;;;;;;;10.83;4.93;;;12.70;97.30;;;;;;5076119;28;20487;-83
2021/10/05 12:26:27;;;;;;;9.70;5.47;;;12.70;97.30;;;;;;5075072;28;20490;-83
2021/10/05 12:29:06;;;;;;;8.87;5.73;;;12.70;97.30;;;;;;5075252;28;20432;-83
2021/10/05 12:31:33;;;;;;;9.07;5.70;;;12.70;97.30;;;;;;5075609;28;20175;-83
2021/10/05 12:34:06;;;;;;;8.17;5.27;;;12.80;97.30;;;;;;5074273;28;20420;-83
2021/10/05 12:36:34;;;;;;;9.97;5.97;;;12.80;97.30;;;;;;5074390;28;20484;-83
2021/10/05 12:39:10;;;;;;;10.90;6.10;;;12.80;97.30;;;;;;5073835;28;20444;-83